Time,TemperatureF,DewpointF,PressureIn,WindDirection,WindDirectionDegrees,WindSpeedMPH,WindSpeedGustMPH,Humidity,HourlyPrecipIn,Conditions,Clouds,dailyrainin,SoftwareType,DateUTC
2013-03-04 00:00:00,37.4,29.2,29.96,NNW,342,13.0,17.0,72,0.00,,---,0.00,VWS V14.01,2013-03-04 05:00:00,
2013-03-04 00:01:00,37.4,30.5,29.96,NNW,346,13.0,17.0,76,0.00,,---,0.00,VWS V14.01,2013-03-04 05:01:00,
2013-03-04 00:07:00,37.1,28.6,29.96,North,355,11.0,17.0,71,0.00,,---,0.00,VWS V14.01,2013-03-04 05:07:00,
2013-03-04 00:12:00,37.1,28.9,29.96,North,349,13.0,17.0,72,0.00,,---,0.00,VWS V14.01,2013-03-04 05:12:00,
2013-03-04 00:17:00,37.3,29.1,29.97,North,355,15.0,17.0,72,0.00,,---,0.00,VWS V14.01,2013-03-04 05:17:00,
2013-03-04 00:22:00,37.3,29.1,29.97,North,360,16.0,17.0,72,0.00,,---,0.00,VWS V14.01,2013-03-04 05:22:00,
2013-03-04 00:27:00,37.2,29.0,29.97,North,355,13.0,17.0,72,0.00,,---,0.00,VWS V14.01,2013-03-04 05:27:00,
2013-03-04 00:32:00,37.2,29.4,29.97,North,360,13.0,17.0,73,0.00,,---,0.00,VWS V14.01,2013-03-04 05:32:00,
2013-03-04 00:37:00,37.0,29.2,29.97,North,360,14.0,17.0,73,0.00,,---,0.00,VWS V14.01,2013-03-04 05:37:00,
2013-03-04 00:42:00,36.6,28.8,29.97,North,355,14.0,17.0,73,0.00,,---,0.00,VWS V14.01,2013-03-04 05:42:00,
2013-03-04 00:47:00,36.2,28.4,29.97,North,360,10.0,17.0,73,0.00,,---,0.00,VWS V14.01,2013-03-04 05:47:00,
2013-03-04 00:52:00,36.4,28.6,29.97,North,355,11.0,17.0,73,0.00,,---,0.00,VWS V14.01,2013-03-04 05:52:00,
2013-03-04 00:57:00,36.1,28.6,29.97,North,355,10.0,17.0,74,0.00,,---,0.00,VWS V14.01,2013-03-04 05:57:00,
2013-03-04 01:02:00,36.0,28.5,29.97,North,360,12.0,14.0,74,0.00,,---,0.00,VWS V14.01,2013-03-04 06:02:00,
2013-03-04 01:07:00,35.8,28.3,29.97,North,360,12.0,15.0,74,0.00,,---,0.00,VWS V14.01,2013-03-04 06:07:00,
2013-03-04 01:12:00,35.9,28.4,29.97,North,360,14.0,15.0,74,0.00,,---,0.00,VWS V14.01,2013-03-04 06:12:00,
2013-03-04 01:17:00,35.7,28.2,29.98,North,355,13.0,15.0,74,0.00,,---,0.00,VWS V14.01,2013-03-04 06:17:00,
2013-03-04 01:22:00,35.7,27.9,29.97,NNW,346,12.0,15.0,73,0.00,,---,0.00,VWS V14.01,2013-03-04 06:22:00,
2013-03-04 01:27:00,35.6,28.1,29.98,NNW,340,13.0,15.0,74,0.00,,---,0.00,VWS V14.01,2013-03-04 06:27:00,
2013-03-04 01:32:00,35.5,27.7,29.98,North,355,13.0,16.0,73,0.00,,---,0.00,VWS V14.01,2013-03-04 06:32:00,
2013-03-04 01:37:00,35.5,27.7,29.97,North,360,15.0,17.0,73,0.00,,---,0.00,VWS V14.01,2013-03-04 06:37:00,
2013-03-04 01:42:00,35.3,27.5,29.97,NNW,348,13.0,17.0,73,0.00,,---,0.00,VWS V14.01,2013-03-04 06:42:00,
2013-03-04 01:47:00,35.0,26.9,29.97,North,355,15.0,17.0,72,0.00,,---,0.00,VWS V14.01,2013-03-04 06:47:00,
2013-03-04 01:52:00,35.1,27.3,29.97,North,360,12.0,17.0,73,0.00,,---,0.00,VWS V14.01,2013-03-04 06:52:00,
2013-03-04 01:57:00,34.9,26.8,29.98,NNW,339,11.0,17.0,72,0.00,,---,0.00,VWS V14.01,2013-03-04 06:57:00,
2013-03-04 02:02:00,34.9,27.1,29.98,NNW,343,11.0,16.0,73,0.00,,---,0.00,VWS V14.01,2013-03-04 07:02:00,
2013-03-04 02:07:00,34.7,27.0,29.98,North,350,14.0,16.0,73,0.00,,---,0.00,VWS V14.01,2013-03-04 07:07:00,
2013-03-04 02:12:00,34.9,27.1,29.98,NNW,343,13.0,17.0,73,0.00,,---,0.00,VWS V14.01,2013-03-04 07:12:00,
2013-03-04 02:17:00,34.6,26.9,29.98,NNW,341,14.0,17.0,73,0.00,,---,0.00,VWS V14.01,2013-03-04 07:17:00,
2013-03-04 02:22:00,34.5,26.8,29.98,NNW,348,15.0,18.0,73,0.00,,---,0.00,VWS V14.01,2013-03-04 07:22:00,
2013-03-04 02:27:00,34.4,26.0,29.98,North,5,18.0,19.0,71,0.00,,---,0.00,VWS V14.01,2013-03-04 07:27:00,
2013-03-04 02:32:00,34.3,26.2,29.98,NNW,347,19.0,19.0,72,0.00,,---,0.00,VWS V14.01,2013-03-04 07:32:00,
2013-03-04 02:37:00,34.2,26.1,29.99,North,355,15.0,20.0,72,0.00,,---,0.00,VWS V14.01,2013-03-04 07:37:00,
2013-03-04 02:42:00,34.1,26.0,29.99,North,351,17.0,20.0,72,0.00,,---,0.00,VWS V14.01,2013-03-04 07:42:00,
2013-03-04 02:47:00,34.0,25.9,29.99,NNW,348,13.0,20.0,72,0.00,,---,0.00,VWS V14.01,2013-03-04 07:47:00,
2013-03-04 02:52:00,33.6,25.9,29.99,North,355,13.0,20.0,73,0.00,,---,0.00,VWS V14.01,2013-03-04 07:52:00,
2013-03-04 02:57:00,33.6,25.9,29.99,NNW,341,12.0,20.0,73,0.00,,---,0.00,VWS V14.01,2013-03-04 07:57:00,
2013-03-04 03:03:00,33.4,26.0,29.99,NNW,340,13.0,16.0,74,0.00,,---,0.00,VWS V14.01,2013-03-04 08:03:00,
2013-03-04 03:08:00,33.3,25.9,29.99,NNW,332,14.0,16.0,74,0.00,,---,0.00,VWS V14.01,2013-03-04 08:08:00,
2013-03-04 03:13:00,33.2,25.5,29.99,North,349,14.0,17.0,73,0.00,,---,0.00,VWS V14.01,2013-03-04 08:13:00,
2013-03-04 03:18:00,33.2,25.2,29.98,North,355,13.0,18.0,72,0.00,,---,0.00,VWS V14.01,2013-03-04 08:18:00,
2013-03-04 03:23:00,33.2,25.2,29.99,NNW,337,15.0,18.0,72,0.00,,---,0.00,VWS V14.01,2013-03-04 08:23:00,
2013-03-04 03:28:00,33.2,24.8,29.99,NNW,341,14.0,14.0,71,0.00,,---,0.00,VWS V14.01,2013-03-04 08:28:00,
2013-03-04 03:33:00,33.1,24.7,29.99,NNW,348,13.0,20.0,71,0.00,,---,0.00,VWS V14.01,2013-03-04 08:33:00,
2013-03-04 03:38:00,33.2,24.8,29.99,NNW,348,13.0,20.0,71,0.00,,---,0.00,VWS V14.01,2013-03-04 08:38:00,
2013-03-04 03:43:00,33.1,24.4,29.99,NNW,347,13.0,20.0,70,0.00,,---,0.00,VWS V14.01,2013-03-04 08:43:00,
2013-03-04 03:48:00,33.1,25.1,29.99,NNW,339,10.0,20.0,72,0.00,,---,0.00,VWS V14.01,2013-03-04 08:48:00,
2013-03-04 03:53:00,32.8,24.8,29.99,NNW,346,10.0,20.0,72,0.00,,---,0.00,VWS V14.01,2013-03-04 08:53:00,
2013-03-04 03:58:00,32.8,25.1,30.00,NNW,327,10.0,11.0,73,0.00,,---,0.00,VWS V14.01,2013-03-04 08:58:00,
2013-03-04 04:03:00,32.6,24.9,30.00,NNW,338,7.0,13.0,73,0.00,,---,0.00,VWS V14.01,2013-03-04 09:03:00,
2013-03-04 04:08:00,32.5,24.8,30.00,NNW,331,9.0,13.0,73,0.00,,---,0.00,VWS V14.01,2013-03-04 09:08:00,
2013-03-04 04:13:00,32.4,24.7,30.00,NNW,333,13.0,15.0,73,0.00,,---,0.00,VWS V14.01,2013-03-04 09:13:00,
2013-03-04 04:18:00,32.5,24.8,30.00,NNW,329,14.0,15.0,73,0.00,,---,0.00,VWS V14.01,2013-03-04 09:18:00,
2013-03-04 04:23:00,32.4,24.1,30.00,NNW,327,13.0,17.0,71,0.00,,---,0.00,VWS V14.01,2013-03-04 09:23:00,
2013-03-04 04:29:00,32.3,24.3,30.00,NNW,340,11.0,13.0,72,0.00,,---,0.00,VWS V14.01,2013-03-04 09:29:00,
2013-03-04 04:34:00,32.3,24.3,30.01,NNW,330,13.0,16.0,72,0.00,,---,0.00,VWS V14.01,2013-03-04 09:34:00,
2013-03-04 04:39:00,32.5,24.5,30.01,NNW,333,10.0,16.0,72,0.00,,---,0.00,VWS V14.01,2013-03-04 09:39:00,
2013-03-04 04:44:00,32.3,24.6,30.02,NNW,327,12.0,16.0,73,0.00,,---,0.00,VWS V14.01,2013-03-04 09:44:00,
2013-03-04 04:49:00,32.0,24.7,30.02,NNW,331,12.0,16.0,74,0.00,,---,0.00,VWS V14.01,2013-03-04 09:49:00,
2013-03-04 04:54:00,31.9,24.6,30.02,NW,326,11.0,16.0,74,0.00,,---,0.00,VWS V14.01,2013-03-04 09:54:00,
2013-03-04 04:59:00,31.8,24.5,30.02,NW,313,10.0,12.0,74,0.00,,---,0.00,VWS V14.01,2013-03-04 09:59:00,
2013-03-04 05:04:00,31.7,24.4,30.02,NW,322,11.0,12.0,74,0.00,,---,0.00,VWS V14.01,2013-03-04 10:04:00,
2013-03-04 05:09:00,31.9,24.9,30.03,NW,308,10.0,14.0,75,0.00,,---,0.00,VWS V14.01,2013-03-04 10:09:00,
2013-03-04 05:14:00,31.8,24.8,30.03,NW,315,12.0,14.0,75,0.00,,---,0.00,VWS V14.01,2013-03-04 10:14:00,
2013-03-04 05:19:00,31.7,24.7,30.02,NW,323,10.0,14.0,75,0.00,,---,0.00,VWS V14.01,2013-03-04 10:19:00,
2013-03-04 05:24:00,31.5,24.5,30.03,NW,316,13.0,15.0,75,0.00,,---,0.00,VWS V14.01,2013-03-04 10:24:00,
2013-03-04 05:29:00,31.5,24.5,30.03,NW,313,11.0,13.0,75,0.00,,---,0.00,VWS V14.01,2013-03-04 10:29:00,
2013-03-04 05:34:00,31.4,24.1,30.03,NNW,332,9.0,14.0,74,0.00,,---,0.00,VWS V14.01,2013-03-04 10:34:00,
2013-03-04 05:39:00,31.5,24.5,30.03,NW,326,13.0,15.0,75,0.00,,---,0.00,VWS V14.01,2013-03-04 10:39:00,
2013-03-04 05:44:00,31.5,24.5,30.04,NW,308,14.0,16.0,75,0.00,,---,0.00,VWS V14.01,2013-03-04 10:44:00,
2013-03-04 05:49:00,31.4,24.1,30.04,NNW,328,13.0,16.0,74,0.00,,---,0.00,VWS V14.01,2013-03-04 10:49:00,
2013-03-04 05:54:00,31.4,24.4,30.04,NW,317,13.0,18.0,75,0.00,,---,0.00,VWS V14.01,2013-03-04 10:54:00,
2013-03-04 06:00:00,31.2,23.9,30.04,NW,323,14.0,17.0,74,0.00,,---,0.00,VWS V14.01,2013-03-04 11:00:00,
2013-03-04 06:05:00,31.2,23.9,30.05,NW,310,10.0,17.0,74,0.00,,---,0.00,VWS V14.01,2013-03-04 11:05:00,
2013-03-04 06:10:00,31.1,23.8,30.05,NW,315,15.0,17.0,74,0.00,,---,0.00,VWS V14.01,2013-03-04 11:10:00,
2013-03-04 06:15:00,31.0,23.7,30.05,NW,321,10.0,17.0,74,0.00,,---,0.00,VWS V14.01,2013-03-04 11:15:00,
2013-03-04 06:20:00,31.0,23.4,30.05,NNW,345,12.0,17.0,73,0.00,,---,0.00,VWS V14.01,2013-03-04 11:20:00,
2013-03-04 06:25:00,31.0,23.4,30.06,NNW,338,14.0,17.0,73,0.00,,---,0.00,VWS V14.01,2013-03-04 11:25:00,
2013-03-04 06:30:00,30.9,23.3,30.06,NW,325,12.0,15.0,73,0.00,,---,0.00,VWS V14.01,2013-03-04 11:30:00,
2013-03-04 06:35:00,31.0,23.4,30.06,NNW,330,10.0,15.0,73,0.00,,---,0.00,VWS V14.01,2013-03-04 11:35:00,
2013-03-04 06:40:00,30.9,23.3,30.07,NW,321,13.0,15.0,73,0.00,,---,0.00,VWS V14.01,2013-03-04 11:40:00,
2013-03-04 06:45:00,31.1,23.8,30.07,NW,317,12.0,15.0,74,0.00,,---,0.00,VWS V14.01,2013-03-04 11:45:00,
2013-03-04 06:50:00,31.1,23.5,30.07,NW,325,13.0,15.0,73,0.00,,---,0.00,VWS V14.01,2013-03-04 11:50:00,
2013-03-04 06:55:00,31.1,23.8,30.07,NNW,329,13.0,15.0,74,0.00,,---,0.00,VWS V14.01,2013-03-04 11:55:00,
2013-03-04 07:00:00,30.9,23.0,30.08,NNW,341,12.0,18.0,72,0.00,,---,0.00,VWS V14.01,2013-03-04 12:00:00,
2013-03-04 07:05:00,31.0,23.0,30.08,NW,321,14.0,18.0,72,0.00,,---,0.00,VWS V14.01,2013-03-04 12:05:00,
2013-03-04 07:10:00,31.1,23.5,30.08,NNW,335,15.0,18.0,73,0.00,,---,0.00,VWS V14.01,2013-03-04 12:10:00,
2013-03-04 07:15:00,31.2,23.2,30.08,NNW,331,13.0,18.0,72,0.00,,---,0.00,VWS V14.01,2013-03-04 12:15:00,
2013-03-04 07:20:00,31.2,22.9,30.08,NW,313,14.0,18.0,71,0.00,,---,0.00,VWS V14.01,2013-03-04 12:20:00,
2013-03-04 07:25:00,31.4,22.8,30.08,NW,315,17.0,20.0,70,0.00,,---,0.00,VWS V14.01,2013-03-04 12:25:00,
2013-03-04 07:30:00,31.5,22.2,30.08,NNW,335,13.0,21.0,68,0.00,,---,0.00,VWS V14.01,2013-03-04 12:30:00,
2013-03-04 07:35:00,31.9,22.9,30.09,NNW,346,18.0,21.0,69,0.00,,---,0.00,VWS V14.01,2013-03-04 12:35:00,
2013-03-04 07:40:00,32.0,23.0,30.09,NNW,343,18.0,22.0,69,0.00,,---,0.00,VWS V14.01,2013-03-04 12:40:00,
2013-03-04 07:45:00,32.2,22.8,30.09,NW,320,16.0,22.0,68,0.00,,---,0.00,VWS V14.01,2013-03-04 12:45:00,
2013-03-04 07:51:00,32.4,22.7,30.09,NNW,346,18.0,23.0,67,0.00,,---,0.00,VWS V14.01,2013-03-04 12:51:00,
2013-03-04 07:56:00,32.5,22.4,30.09,NNW,343,21.0,25.0,66,0.00,,---,0.00,VWS V14.01,2013-03-04 12:56:00,
2013-03-04 08:01:00,32.6,22.5,30.09,NNW,347,17.0,24.0,66,0.00,,---,0.00,VWS V14.01,2013-03-04 13:01:00,
2013-03-04 08:06:00,32.8,22.3,30.09,NNW,346,20.0,24.0,65,0.00,,---,0.00,VWS V14.01,2013-03-04 13:06:00,
2013-03-04 08:11:00,33.2,23.1,30.10,NNW,327,20.0,24.0,66,0.00,,---,0.00,VWS V14.01,2013-03-04 13:11:00,
2013-03-04 08:16:00,33.2,22.0,30.10,NW,326,19.0,25.0,63,0.00,,---,0.00,VWS V14.01,2013-03-04 13:16:00,
2013-03-04 08:21:00,33.4,22.5,30.10,North,360,20.0,25.0,64,0.00,,---,0.00,VWS V14.01,2013-03-04 13:21:00,
2013-03-04 08:26:00,33.5,21.9,30.10,NNW,344,20.0,25.0,62,0.00,,---,0.00,VWS V14.01,2013-03-04 13:26:00,
2013-03-04 08:31:00,33.6,22.0,30.10,NNW,345,17.0,24.0,62,0.00,,---,0.00,VWS V14.01,2013-03-04 13:31:00,
2013-03-04 08:36:00,34.1,22.5,30.11,NW,322,20.0,24.0,62,0.00,,---,0.00,VWS V14.01,2013-03-04 13:36:00,
2013-03-04 08:41:00,34.1,21.7,30.11,North,350,16.0,29.0,60,0.00,,---,0.00,VWS V14.01,2013-03-04 13:41:00,
2013-03-04 08:46:00,34.2,21.4,30.11,NNW,347,19.0,29.0,59,0.00,,---,0.00,VWS V14.01,2013-03-04 13:46:00,
2013-03-04 08:51:00,34.6,22.9,30.11,North,351,16.0,29.0,62,0.00,,---,0.00,VWS V14.01,2013-03-04 13:51:00,
2013-03-04 08:56:00,34.8,22.7,30.11,NNW,347,24.0,29.0,61,0.00,,---,0.00,VWS V14.01,2013-03-04 13:56:00,
2013-03-04 09:01:00,34.8,21.5,30.10,North,360,22.0,29.0,58,0.00,,---,0.00,VWS V14.01,2013-03-04 14:01:00,
2013-03-04 09:06:00,35.0,21.3,30.10,North,351,28.0,29.0,57,0.00,,---,0.00,VWS V14.01,2013-03-04 14:06:00,
2013-03-04 09:11:00,35.3,21.6,30.11,NNW,329,27.0,33.0,57,0.00,,---,0.00,VWS V14.01,2013-03-04 14:11:00,
2013-03-04 09:16:00,35.5,21.0,30.11,NNW,344,29.0,33.0,55,0.00,,---,0.00,VWS V14.01,2013-03-04 14:16:00,
2013-03-04 09:21:00,35.9,22.2,30.11,NNW,346,26.0,33.0,57,0.00,,---,0.00,VWS V14.01,2013-03-04 14:21:00,
2013-03-04 09:26:00,36.0,21.4,30.11,North,360,22.0,33.0,55,0.00,,---,0.00,VWS V14.01,2013-03-04 14:26:00,
2013-03-04 09:31:00,36.0,21.4,30.10,NNW,348,25.0,29.0,55,0.00,,---,0.00,VWS V14.01,2013-03-04 14:31:00,
2013-03-04 09:36:00,36.0,20.5,30.10,NNW,346,27.0,32.0,53,0.00,,---,0.00,VWS V14.01,2013-03-04 14:36:00,
2013-03-04 09:41:00,36.1,20.6,30.10,North,355,23.0,33.0,53,0.00,,---,0.00,VWS V14.01,2013-03-04 14:41:00,
2013-03-04 09:46:00,36.5,21.5,30.10,North,360,20.0,33.0,54,0.00,,---,0.00,VWS V14.01,2013-03-04 14:46:00,
2013-03-04 09:51:00,37.0,22.8,30.10,NNE,14,24.0,33.0,56,0.00,,---,0.00,VWS V14.01,2013-03-04 14:51:00,
2013-03-04 09:56:00,37.0,21.0,30.10,NNW,346,27.0,33.0,52,0.00,,---,0.00,VWS V14.01,2013-03-04 14:56:00,
2013-03-04 10:01:00,36.9,20.9,30.10,North,351,32.0,33.0,52,0.00,,---,0.00,VWS V14.01,2013-03-04 15:01:00,
2013-03-04 10:06:00,37.1,22.0,30.10,WNW,290,29.0,33.0,54,0.00,,---,0.00,VWS V14.01,2013-03-04 15:06:00,
2013-03-04 10:12:00,37.5,21.5,30.10,NNW,344,15.0,33.0,52,0.00,,---,0.00,VWS V14.01,2013-03-04 15:12:00,
2013-03-04 10:17:00,37.6,22.0,30.09,North,355,31.0,33.0,53,0.00,,---,0.00,VWS V14.01,2013-03-04 15:17:00,
2013-03-04 10:22:00,37.5,22.4,30.10,North,360,18.0,33.0,54,0.00,,---,0.00,VWS V14.01,2013-03-04 15:22:00,
2013-03-04 10:27:00,37.7,22.6,30.10,North,355,22.0,33.0,54,0.00,,---,0.00,VWS V14.01,2013-03-04 15:27:00,
2013-03-04 10:32:00,37.6,22.0,30.09,North,355,24.0,29.0,53,0.00,,---,0.00,VWS V14.01,2013-03-04 15:32:00,
2013-03-04 10:37:00,38.0,22.4,30.09,North,351,22.0,33.0,53,0.00,,---,0.00,VWS V14.01,2013-03-04 15:37:00,
2013-03-04 10:42:00,37.8,21.8,30.09,NNW,340,21.0,33.0,52,0.00,,---,0.00,VWS V14.01,2013-03-04 15:42:00,
2013-03-04 10:47:00,38.4,22.8,30.09,North,360,22.0,33.0,53,0.00,,---,0.00,VWS V14.01,2013-03-04 15:47:00,
2013-03-04 10:52:00,38.0,20.5,30.09,NNW,336,24.0,33.0,49,0.00,,---,0.00,VWS V14.01,2013-03-04 15:52:00,
2013-03-04 10:57:00,38.3,21.8,30.09,NNW,336,15.0,33.0,51,0.00,,---,0.00,VWS V14.01,2013-03-04 15:57:00,
2013-03-04 11:02:00,38.4,20.9,30.09,NNW,339,24.0,28.0,49,0.00,,---,0.00,VWS V14.01,2013-03-04 16:02:00,
2013-03-04 11:09:00,38.8,21.8,30.09,NNW,336,26.0,29.0,50,0.00,,---,0.00,VWS V14.01,2013-03-04 16:09:00,
2013-03-04 11:14:00,38.9,21.4,30.09,North,351,26.0,31.0,49,0.00,,---,0.00,VWS V14.01,2013-03-04 16:14:00,
2013-03-04 11:19:00,38.8,20.3,30.09,North,355,19.0,32.0,47,0.00,,---,0.00,VWS V14.01,2013-03-04 16:19:00,
2013-03-04 11:24:00,39.2,21.2,30.09,NNW,338,22.0,32.0,48,0.00,,---,0.00,VWS V14.01,2013-03-04 16:24:00,
2013-03-04 11:29:00,39.1,21.6,30.09,North,355,15.0,19.0,49,0.00,,---,0.00,VWS V14.01,2013-03-04 16:29:00,
2013-03-04 11:34:00,39.3,21.3,30.09,NNW,333,14.0,27.0,48,0.00,,---,0.00,VWS V14.01,2013-03-04 16:34:00,
2013-03-04 11:40:00,39.7,22.1,30.08,NW,319,20.0,27.0,49,0.00,,---,0.00,VWS V14.01,2013-03-04 16:40:00,
2013-03-04 11:45:00,40.4,23.2,30.09,North,5,19.0,32.0,50,0.00,,---,0.00,VWS V14.01,2013-03-04 16:45:00,
2013-03-04 11:50:00,40.2,21.1,30.09,North,355,22.0,33.0,46,0.00,,---,0.00,VWS V14.01,2013-03-04 16:50:00,
2013-03-04 11:55:00,40.2,22.1,30.09,NW,309,20.0,33.0,48,0.00,,---,0.00,VWS V14.01,2013-03-04 16:55:00,
2013-03-04 12:00:00,40.0,21.9,30.08,NW,319,17.0,22.0,48,0.00,,---,0.00,VWS V14.01,2013-03-04 17:00:00,
2013-03-04 12:05:00,40.6,22.0,30.08,NW,319,27.0,32.0,47,0.00,,---,0.00,VWS V14.01,2013-03-04 17:05:00,
2013-03-04 12:10:00,40.9,23.2,30.08,NNW,327,22.0,32.0,49,0.00,,---,0.00,VWS V14.01,2013-03-04 17:10:00,
2013-03-04 12:15:00,40.8,22.6,30.08,North,349,17.0,32.0,48,0.00,,---,0.00,VWS V14.01,2013-03-04 17:15:00,
2013-03-04 12:20:00,41.1,22.9,30.07,NW,317,22.0,32.0,48,0.00,,---,0.00,VWS V14.01,2013-03-04 17:20:00,
2013-03-04 12:25:00,40.9,21.2,30.07,NNW,336,17.0,32.0,45,0.00,,---,0.00,VWS V14.01,2013-03-04 17:25:00,
2013-03-04 12:30:00,41.2,21.0,30.06,North,355,16.0,21.0,44,0.00,,---,0.00,VWS V14.01,2013-03-04 17:30:00,
2013-03-04 12:35:00,41.6,23.9,30.06,North,355,7.0,22.0,49,0.00,,---,0.00,VWS V14.01,2013-03-04 17:35:00,
2013-03-04 12:40:00,41.9,23.2,30.06,NW,306,17.0,28.0,47,0.00,,---,0.00,VWS V14.01,2013-03-04 17:40:00,
2013-03-04 12:45:00,41.8,22.0,30.06,NNW,333,17.0,28.0,45,0.00,,---,0.00,VWS V14.01,2013-03-04 17:45:00,
2013-03-04 12:50:00,42.8,21.9,30.05,NNW,327,17.0,28.0,43,0.00,,---,0.00,VWS V14.01,2013-03-04 17:50:00,
2013-03-04 12:55:00,42.4,22.6,30.05,NNW,330,19.0,28.0,45,0.00,,---,0.00,VWS V14.01,2013-03-04 17:55:00,
2013-03-04 13:00:00,42.7,21.2,30.05,NW,311,22.0,27.0,42,0.00,,---,0.00,VWS V14.01,2013-03-04 18:00:00,
2013-03-04 13:05:00,42.7,22.3,30.05,NW,304,16.0,27.0,44,0.00,,---,0.00,VWS V14.01,2013-03-04 18:05:00,
2013-03-04 13:10:00,43.1,22.1,30.05,NNW,345,13.0,31.0,43,0.00,,---,0.00,VWS V14.01,2013-03-04 18:10:00,
2013-03-04 13:15:00,43.6,25.2,30.05,NNW,344,14.0,31.0,48,0.00,,---,0.00,VWS V14.01,2013-03-04 18:15:00,
2013-03-04 13:20:00,43.5,22.5,30.05,NW,323,18.0,31.0,43,0.00,,---,0.00,VWS V14.01,2013-03-04 18:20:00,
2013-03-04 13:26:00,43.7,22.7,30.05,NW,315,18.0,31.0,43,0.00,,---,0.00,VWS V14.01,2013-03-04 18:26:00,
2013-03-04 13:29:00,43.8,23.9,30.04,NW,325,24.0,30.0,45,0.00,,---,0.00,VWS V14.01,2013-03-04 18:29:00,
2013-03-04 13:30:00,43.9,22.9,30.04,NNW,338,18.0,30.0,43,0.00,,---,0.00,VWS V14.01,2013-03-04 18:30:00,
2013-03-04 13:31:00,44.0,23.0,30.04,NNW,330,19.0,30.0,43,0.00,,---,0.00,VWS V14.01,2013-03-04 18:31:00,
2013-03-04 13:36:00,44.1,23.0,30.04,NNW,344,16.0,30.0,43,0.00,,---,0.00,VWS V14.01,2013-03-04 18:36:00,
2013-03-04 13:41:00,44.6,24.0,30.04,NW,311,14.0,30.0,44,0.00,,---,0.00,VWS V14.01,2013-03-04 18:41:00,
2013-03-04 13:46:00,44.8,23.1,30.04,NW,311,19.0,30.0,42,0.00,,---,0.00,VWS V14.01,2013-03-04 18:46:00,
2013-03-04 13:51:00,44.9,24.9,30.04,NW,314,18.0,30.0,45,0.00,,---,0.00,VWS V14.01,2013-03-04 18:51:00,
2013-03-04 13:56:00,45.1,22.2,30.04,NNW,347,16.0,30.0,40,0.00,,---,0.00,VWS V14.01,2013-03-04 18:56:00,
2013-03-04 14:01:00,45.0,21.5,30.03,NW,308,19.0,28.0,39,0.00,,---,0.00,VWS V14.01,2013-03-04 19:01:00,
2013-03-04 14:06:00,45.4,23.7,30.03,NW,311,20.0,28.0,42,0.00,,---,0.00,VWS V14.01,2013-03-04 19:06:00,
2013-03-04 14:11:00,45.6,23.3,30.03,North,350,21.0,28.0,41,0.00,,---,0.00,VWS V14.01,2013-03-04 19:11:00,
2013-03-04 14:16:00,45.7,21.6,30.03,NNW,327,19.0,28.0,38,0.00,,---,0.00,VWS V14.01,2013-03-04 19:16:00,
2013-03-04 14:21:00,45.8,24.0,30.03,NW,323,18.0,28.0,42,0.00,,---,0.00,VWS V14.01,2013-03-04 19:21:00,
2013-03-04 14:26:00,45.9,21.7,30.03,NW,324,20.0,28.0,38,0.00,,---,0.00,VWS V14.01,2013-03-04 19:26:00,
2013-03-04 14:32:00,46.4,21.6,30.03,NW,306,15.0,22.0,37,0.00,,---,0.00,VWS V14.01,2013-03-04 19:32:00,
2013-03-04 14:37:00,46.4,22.2,30.03,NW,316,18.0,25.0,38,0.00,,---,0.00,VWS V14.01,2013-03-04 19:37:00,
2013-03-04 14:42:00,46.5,25.8,30.03,NW,316,21.0,25.0,44,0.00,,---,0.00,VWS V14.01,2013-03-04 19:42:00,
2013-03-04 14:47:00,46.5,22.9,30.03,NW,319,15.0,25.0,39,0.00,,---,0.00,VWS V14.01,2013-03-04 19:47:00,
2013-03-04 14:52:00,46.9,22.6,30.03,NNW,327,14.0,25.0,38,0.00,,---,0.00,VWS V14.01,2013-03-04 19:52:00,
2013-03-04 14:57:00,47.0,24.0,30.03,NW,311,11.0,25.0,40,0.00,,---,0.00,VWS V14.01,2013-03-04 19:57:00,
2013-03-04 15:02:00,47.1,22.2,30.03,NW,310,21.0,23.0,37,0.00,,---,0.00,VWS V14.01,2013-03-04 20:02:00,
2013-03-04 15:07:00,47.1,21.5,30.03,NW,315,15.0,23.0,36,0.00,,---,0.00,VWS V14.01,2013-03-04 20:07:00,
2013-03-04 15:12:00,47.1,23.4,30.03,NW,310,16.0,23.0,39,0.00,,---,0.00,VWS V14.01,2013-03-04 20:12:00,
2013-03-04 15:17:00,47.9,25.4,30.03,NW,318,18.0,27.0,41,0.00,,---,0.00,VWS V14.01,2013-03-04 20:17:00,
2013-03-04 15:22:00,47.9,24.1,30.03,WNW,303,12.0,27.0,39,0.00,,---,0.00,VWS V14.01,2013-03-04 20:22:00,
2013-03-04 15:27:00,47.9,22.2,30.03,NNW,336,16.0,27.0,36,0.00,,---,0.00,VWS V14.01,2013-03-04 20:27:00,
2013-03-04 15:32:00,48.0,23.6,30.03,NW,313,11.0,20.0,38,0.00,,---,0.00,VWS V14.01,2013-03-04 20:32:00,
2013-03-04 15:37:00,48.1,23.1,30.03,WNW,300,11.0,20.0,37,0.00,,---,0.00,VWS V14.01,2013-03-04 20:37:00,
2013-03-04 15:42:00,48.1,23.1,30.03,NW,307,17.0,20.0,37,0.00,,---,0.00,VWS V14.01,2013-03-04 20:42:00,
2013-03-04 15:47:00,48.3,23.3,30.03,NNW,340,13.0,20.0,37,0.00,,---,0.00,VWS V14.01,2013-03-04 20:47:00,
2013-03-04 15:56:00,48.9,24.4,30.03,WNW,303,18.0,20.0,38,0.00,,---,0.00,VWS V14.01,2013-03-04 20:56:00,
2013-03-04 16:01:00,48.8,22.4,30.03,WNW,299,16.0,20.0,35,0.00,,---,0.00,VWS V14.01,2013-03-04 21:01:00,
2013-03-04 16:06:00,48.8,23.0,30.03,WNW,296,14.0,21.0,36,0.00,,---,0.00,VWS V14.01,2013-03-04 21:06:00,
2013-03-04 16:11:00,48.9,23.1,30.03,WNW,288,8.0,21.0,36,0.00,,---,0.00,VWS V14.01,2013-03-04 21:11:00,
2013-03-04 16:16:00,49.2,22.0,30.03,NW,321,15.0,21.0,34,0.00,,---,0.00,VWS V14.01,2013-03-04 21:16:00,
2013-03-04 16:21:00,49.2,23.4,30.03,NW,306,12.0,21.0,36,0.00,,---,0.00,VWS V14.01,2013-03-04 21:21:00,
2013-03-04 16:26:00,49.3,21.4,30.03,NNW,343,11.0,21.0,33,0.00,,---,0.00,VWS V14.01,2013-03-04 21:26:00,
2013-03-04 16:31:00,49.6,23.8,30.03,WNW,300,11.0,20.0,36,0.00,,---,0.00,VWS V14.01,2013-03-04 21:31:00,
2013-03-04 16:36:00,49.7,22.5,30.03,NW,320,16.0,20.0,34,0.00,,---,0.00,VWS V14.01,2013-03-04 21:36:00,
2013-03-04 16:41:00,49.9,24.0,30.03,NW,314,8.0,20.0,36,0.00,,---,0.00,VWS V14.01,2013-03-04 21:41:00,
2013-03-04 16:47:00,50.0,24.1,30.03,NNW,330,11.0,20.0,36,0.00,,---,0.00,VWS V14.01,2013-03-04 21:47:00,
2013-03-04 16:52:00,50.0,21.3,30.03,NNW,331,10.0,20.0,32,0.00,,---,0.00,VWS V14.01,2013-03-04 21:52:00,
2013-03-04 16:58:00,50.1,22.8,30.03,NW,323,17.0,17.0,34,0.00,,---,0.00,VWS V14.01,2013-03-04 21:58:00,
2013-03-04 17:03:00,50.0,22.0,30.03,NW,325,12.0,20.0,33,0.00,,---,0.00,VWS V14.01,2013-03-04 22:03:00,
2013-03-04 17:08:00,50.0,22.8,30.04,NW,304,12.0,20.0,34,0.00,,---,0.00,VWS V14.01,2013-03-04 22:08:00,
2013-03-04 17:13:00,50.1,22.1,30.04,NW,312,13.0,20.0,33,0.00,,---,0.00,VWS V14.01,2013-03-04 22:13:00,
2013-03-04 17:19:00,50.2,22.9,30.04,NNW,338,9.0,20.0,34,0.00,,---,0.00,VWS V14.01,2013-03-04 22:19:00,
2013-03-04 17:24:00,50.2,22.9,30.04,NNW,332,15.0,20.0,34,0.00,,---,0.00,VWS V14.01,2013-03-04 22:24:00,
2013-03-04 17:29:00,50.1,22.8,30.04,NNW,331,16.0,18.0,34,0.00,,---,0.00,VWS V14.01,2013-03-04 22:29:00,
2013-03-04 17:34:00,50.0,22.0,30.05,NW,323,13.0,19.0,33,0.00,,---,0.00,VWS V14.01,2013-03-04 22:34:00,
2013-03-04 17:39:00,49.9,24.7,30.05,NNW,329,13.0,19.0,37,0.00,,---,0.00,VWS V14.01,2013-03-04 22:39:00,
2013-03-04 17:44:00,49.8,24.6,30.05,NW,316,10.0,19.0,37,0.00,,---,0.00,VWS V14.01,2013-03-04 22:44:00,
2013-03-04 17:49:00,49.6,25.0,30.05,NW,313,9.0,19.0,38,0.00,,---,0.00,VWS V14.01,2013-03-04 22:49:00,
2013-03-04 17:54:00,49.5,26.2,30.05,NW,325,7.0,19.0,40,0.00,,---,0.00,VWS V14.01,2013-03-04 22:54:00,
2013-03-04 17:59:00,49.3,24.8,30.05,NW,313,6.0,7.0,38,0.00,,---,0.00,VWS V14.01,2013-03-04 22:59:00,
2013-03-04 18:04:00,49.1,25.8,30.05,NW,318,5.0,9.0,40,0.00,,---,0.00,VWS V14.01,2013-03-04 23:04:00,
2013-03-04 18:09:00,48.8,26.2,30.05,NW,310,5.0,9.0,41,0.00,,---,0.00,VWS V14.01,2013-03-04 23:09:00,
2013-03-04 18:14:00,48.5,27.6,30.05,NW,310,5.0,9.0,44,0.00,,---,0.00,VWS V14.01,2013-03-04 23:14:00,
2013-03-04 18:19:00,48.3,29.0,30.06,NW,310,4.0,9.0,47,0.00,,---,0.00,VWS V14.01,2013-03-04 23:19:00,
2013-03-04 18:25:00,48.0,28.2,30.06,NW,315,5.0,9.0,46,0.00,,---,0.00,VWS V14.01,2013-03-04 23:25:00,
2013-03-04 18:30:00,47.8,29.1,30.06,NW,315,5.0,5.0,48,0.00,,---,0.00,VWS V14.01,2013-03-04 23:30:00,
2013-03-04 18:35:00,47.6,30.4,30.06,NW,312,3.0,5.0,51,0.00,,---,0.00,VWS V14.01,2013-03-04 23:35:00,
2013-03-04 18:40:00,47.3,31.5,30.06,NW,310,4.0,5.0,54,0.00,,---,0.00,VWS V14.01,2013-03-04 23:40:00,
2013-03-04 18:45:00,47.0,31.7,30.07,WNW,297,4.0,6.0,55,0.00,,---,0.00,VWS V14.01,2013-03-04 23:45:00,
2013-03-04 18:50:00,46.9,32.0,30.07,WNW,295,4.0,6.0,56,0.00,,---,0.00,VWS V14.01,2013-03-04 23:50:00,
2013-03-04 18:55:00,46.8,32.0,30.07,WNW,295,5.0,6.0,56,0.00,,---,0.00,VWS V14.01,2013-03-04 23:55:00,
2013-03-04 19:00:00,46.6,30.9,30.07,WNW,295,5.0,5.0,54,0.00,,---,0.00,VWS V14.01,2013-03-05 00:00:00,
2013-03-04 19:05:00,46.5,31.2,30.07,WNW,295,4.0,5.0,55,0.00,,---,0.00,VWS V14.01,2013-03-05 00:05:00,
2013-03-04 19:11:00,46.4,30.7,30.07,WNW,295,4.0,5.0,54,0.00,,---,0.00,VWS V14.01,2013-03-05 00:11:00,
2013-03-04 19:16:00,46.3,30.6,30.07,WNW,295,4.0,5.0,54,0.00,,---,0.00,VWS V14.01,2013-03-05 00:16:00,
2013-03-04 19:21:00,46.2,29.1,30.07,WNW,293,4.0,5.0,51,0.00,,---,0.00,VWS V14.01,2013-03-05 00:21:00,
2013-03-04 19:26:00,46.1,29.0,30.08,WNW,292,4.0,5.0,51,0.00,,---,0.00,VWS V14.01,2013-03-05 00:26:00,
2013-03-04 19:31:00,45.9,29.3,30.08,WNW,291,5.0,5.0,52,0.00,,---,0.00,VWS V14.01,2013-03-05 00:31:00,
2013-03-04 19:36:00,45.6,29.5,30.08,WNW,288,5.0,5.0,53,0.00,,---,0.00,VWS V14.01,2013-03-05 00:36:00,
2013-03-04 19:42:00,45.5,28.9,30.08,WNW,286,4.0,6.0,52,0.00,,---,0.00,VWS V14.01,2013-03-05 00:42:00,
2013-03-04 19:47:00,45.4,29.3,30.08,WNW,285,4.0,6.0,53,0.00,,---,0.00,VWS V14.01,2013-03-05 00:47:00,
2013-03-04 19:52:00,45.2,29.1,30.08,WNW,284,4.0,6.0,53,0.00,,---,0.00,VWS V14.01,2013-03-05 00:52:00,
2013-03-04 19:57:00,44.9,28.4,30.08,WNW,288,4.0,6.0,52,0.00,,---,0.00,VWS V14.01,2013-03-05 00:57:00,
2013-03-04 20:02:00,44.6,29.9,30.08,WNW,288,3.0,4.0,56,0.00,,---,0.00,VWS V14.01,2013-03-05 01:02:00,
2013-03-04 20:07:00,44.3,30.0,30.08,WNW,287,5.0,5.0,57,0.00,,---,0.00,VWS V14.01,2013-03-05 01:07:00,
2013-03-04 20:13:00,44.0,31.0,30.08,WNW,289,4.0,5.0,60,0.00,,---,0.00,VWS V14.01,2013-03-05 01:13:00,
2013-03-04 20:18:00,43.8,31.2,30.09,WNW,287,4.0,6.0,61,0.00,,---,0.00,VWS V14.01,2013-03-05 01:18:00,
2013-03-04 20:23:00,43.5,31.0,30.08,WNW,292,4.0,6.0,61,0.00,,---,0.00,VWS V14.01,2013-03-05 01:23:00,
2013-03-04 20:28:00,43.2,30.3,30.08,WNW,298,4.0,5.0,60,0.00,,---,0.00,VWS V14.01,2013-03-05 01:28:00,
2013-03-04 20:33:00,43.1,30.6,30.09,WNW,294,5.0,6.0,61,0.00,,---,0.00,VWS V14.01,2013-03-05 01:33:00,
2013-03-04 20:38:00,42.8,30.3,30.09,WNW,298,5.0,7.0,61,0.00,,---,0.00,VWS V14.01,2013-03-05 01:38:00,
2013-03-04 20:43:00,42.6,29.3,30.09,WNW,296,5.0,7.0,59,0.00,,---,0.00,VWS V14.01,2013-03-05 01:43:00,
2013-03-04 20:49:00,42.4,29.9,30.10,WNW,298,5.0,7.0,61,0.00,,---,0.00,VWS V14.01,2013-03-05 01:49:00,
2013-03-04 20:54:00,42.3,29.8,30.10,WNW,289,5.0,7.0,61,0.00,,---,0.00,VWS V14.01,2013-03-05 01:54:00,
2013-03-04 20:59:00,42.0,29.9,30.10,WNW,287,5.0,6.0,62,0.00,,---,0.00,VWS V14.01,2013-03-05 01:59:00,
2013-03-04 21:05:00,42.1,31.6,30.11,West,275,5.0,6.0,66,0.00,,---,0.00,VWS V14.01,2013-03-05 02:05:00,
2013-03-04 21:10:00,42.4,32.2,30.10,West,275,6.0,7.0,67,0.00,,---,0.00,VWS V14.01,2013-03-05 02:10:00,
2013-03-04 21:16:00,42.7,31.8,30.11,West,269,7.0,9.0,65,0.00,,---,0.00,VWS V14.01,2013-03-05 02:16:00,
2013-03-04 21:21:00,42.7,30.6,30.11,West,281,6.0,9.0,62,0.00,,---,0.00,VWS V14.01,2013-03-05 02:21:00,
2013-03-04 21:26:00,42.4,30.3,30.11,West,277,6.0,9.0,62,0.00,,---,0.00,VWS V14.01,2013-03-05 02:26:00,
2013-03-04 21:31:00,42.1,30.4,30.11,West,275,7.0,7.0,63,0.00,,---,0.00,VWS V14.01,2013-03-05 02:31:00,
2013-03-04 21:36:00,42.1,31.2,30.11,West,274,4.0,7.0,65,0.00,,---,0.00,VWS V14.01,2013-03-05 02:36:00,
2013-03-04 21:41:00,42.3,31.8,30.11,West,273,5.0,7.0,66,0.00,,---,0.00,VWS V14.01,2013-03-05 02:41:00,
2013-03-04 21:46:00,42.6,32.0,30.11,West,277,4.0,7.0,66,0.00,,---,0.00,VWS V14.01,2013-03-05 02:46:00,
2013-03-04 21:51:00,42.6,31.7,30.12,WSW,258,6.0,9.0,65,0.00,,---,0.00,VWS V14.01,2013-03-05 02:51:00,
2013-03-04 21:56:00,42.4,30.3,30.12,WSW,258,5.0,9.0,62,0.00,,---,0.00,VWS V14.01,2013-03-05 02:56:00,
2013-03-04 22:01:00,42.3,29.8,30.12,SW,227,6.0,6.0,61,0.00,,---,0.00,VWS V14.01,2013-03-05 03:01:00,
2013-03-04 22:06:00,42.2,29.3,30.12,West,266,6.0,8.0,60,0.00,,---,0.00,VWS V14.01,2013-03-05 03:06:00,
2013-03-04 22:11:00,42.2,29.7,30.12,West,265,7.0,9.0,61,0.00,,---,0.00,VWS V14.01,2013-03-05 03:11:00,
2013-03-04 22:17:00,42.4,30.7,30.12,West,267,7.0,10.0,63,0.00,,---,0.00,VWS V14.01,2013-03-05 03:17:00,
2013-03-04 22:22:00,42.5,32.0,30.12,West,266,6.0,10.0,66,0.00,,---,0.00,VWS V14.01,2013-03-05 03:22:00,
2013-03-04 22:27:00,42.4,31.5,30.12,WSW,246,6.0,10.0,65,0.00,,---,0.00,VWS V14.01,2013-03-05 03:27:00,
2013-03-04 22:32:00,42.3,31.4,30.12,West,263,9.0,10.0,65,0.00,,---,0.00,VWS V14.01,2013-03-05 03:32:00,
2013-03-04 22:37:00,42.3,31.4,30.12,West,259,7.0,10.0,65,0.00,,---,0.00,VWS V14.01,2013-03-05 03:37:00,
2013-03-04 22:43:00,42.4,31.9,30.12,West,263,7.0,11.0,66,0.00,,---,0.00,VWS V14.01,2013-03-05 03:43:00,
2013-03-04 22:48:00,42.6,32.8,30.12,West,272,7.0,11.0,68,0.00,,---,0.00,VWS V14.01,2013-03-05 03:48:00,
2013-03-04 22:53:00,42.5,33.1,30.11,West,276,7.0,11.0,69,0.00,,---,0.00,VWS V14.01,2013-03-05 03:53:00,
2013-03-04 22:58:00,41.9,32.8,30.11,West,275,6.0,11.0,70,0.00,,---,0.00,VWS V14.01,2013-03-05 03:58:00,
2013-03-04 23:03:00,41.5,32.5,30.11,West,277,5.0,8.0,70,0.00,,---,0.00,VWS V14.01,2013-03-05 04:03:00,
2013-03-04 23:08:00,41.5,32.5,30.11,WNW,284,7.0,9.0,70,0.00,,---,0.00,VWS V14.01,2013-03-05 04:08:00,
2013-03-04 23:13:00,41.5,31.7,30.11,West,277,7.0,9.0,68,0.00,,---,0.00,VWS V14.01,2013-03-05 04:13:00,
2013-03-04 23:18:00,41.5,31.7,30.11,WNW,284,6.0,9.0,68,0.00,,---,0.00,VWS V14.01,2013-03-05 04:18:00,
2013-03-04 23:24:00,41.3,31.5,30.11,WNW,286,6.0,9.0,68,0.00,,---,0.00,VWS V14.01,2013-03-05 04:24:00,
2013-03-04 23:29:00,41.1,31.7,30.11,West,278,6.0,6.0,69,0.00,,---,0.00,VWS V14.01,2013-03-05 04:29:00,
2013-03-04 23:34:00,41.3,31.9,30.11,West,275,5.0,7.0,69,0.00,,---,0.00,VWS V14.01,2013-03-05 04:34:00,
2013-03-04 23:39:00,41.7,31.9,30.10,West,279,6.0,7.0,68,0.00,,---,0.00,VWS V14.01,2013-03-05 04:39:00,
2013-03-04 23:45:00,41.8,31.3,30.10,WNW,284,6.0,7.0,66,0.00,,---,0.00,VWS V14.01,2013-03-05 04:45:00,
2013-03-04 23:50:00,41.9,31.0,30.10,WNW,288,6.0,10.0,65,0.00,,---,0.00,VWS V14.01,2013-03-05 04:50:00,
2013-03-04 23:55:00,41.9,31.0,30.10,WNW,288,6.0,10.0,65,0.00,,---,0.00,VWS V14.01,2013-03-05 04:55:00,